Terminal Aerodrome Forecast
Issued by NWS

Home | Current Version | Previous Version | Text Only | Print | Product List | Glossary On
Versions: 1 2 3 4 5 6 7 8 9 10 11 12 13
000
FTUS46 KPDT 042341
TAFRDM
TAF
KRDM 042341Z 0500/0524 31012G20KT P6SM BKN023 OVC030
     FM050200 30008KT P6SM BKN028 OVC035
     FM050400 22006KT P6SM VCSH BKN005 OVC015=

USA.gov is the U.S. government's official web portal to all federal, state and local government web resources and services.